Terminal Aerodrome Forecast
Issued by NWS Upton, NY

Current Version | Previous Version | Text Only | Print | Product List | Glossary On
Versions: 1 2 3 4 5 6 7 8 9 10 11 12 13 14 15 16 17 18 19 20 21 22 23 24 25 26 27 28 29 30 31 32
000
FTUS41 KOKX 202320
TAFJFK
TAF
KJFK 202320Z 2100/2206 31009KT P6SM FEW050
     FM210200 28005KT P6SM SKC
     FM211400 23008KT P6SM FEW250
     FM211600 18010KT P6SM FEW050 SCT250
     FM211900 18013G18KT P6SM FEW050 SCT250
     FM220200 21008KT P6SM SCT250=

USA.gov is the U.S. government's official web portal to all federal, state and local government web resources and services.